Terminal Aerodrome Forecast
Issued by NWS Charleston, SC

Home | Current Version | Previous Version | Text Only | Print | Product List | Glossary On
Versions: 1 2 3 4 5 6 7 8 9 10 11 12 13 14 15 16 17 18 19 20 21 22 23 24 25 26
000
FTUS42 KCHS 221153 CCA
TAFSAV
TAF COR
KSAV 221153Z 2212/2312 00000KT 4SM BR SCT020
      TEMPO 2212/2213 1/2SM FG
     FM221330 VRB03KT P6SM SCT008 BKN012
     FM221430 16007KT P6SM SKC
     FM230200 15004KT P6SM SKC
     FM230900 VRB03KT 5SM BR SCT010 BKN030=

USA.gov is the U.S. government's official web portal to all federal, state and local government web resources and services.